createdAt,value
2018-08-06T00:02:45.473Z,1.47
2018-08-06T00:07:50.398Z,1.10
2018-08-06T00:12:55.447Z,1.17
2018-08-06T00:18:00.351Z,1.40
2018-08-06T00:23:05.991Z,1.50
2018-08-06T00:28:10.918Z,1.30
2018-08-06T00:33:15.834Z,1.50
2018-08-06T00:38:20.761Z,1.70
2018-08-06T00:43:25.444Z,1.50
2018-08-06T00:48:30.361Z,1.50
2018-08-06T00:53:35.404Z,1.30
2018-08-06T00:58:40.092Z,1.60
2018-08-06T01:03:45.492Z,1.70
2018-08-06T01:08:50.464Z,1.57
2018-08-06T01:13:55.095Z,1.30
2018-08-06T01:18:59.793Z,1.50
2018-08-06T01:24:04.970Z,1.60
2018-08-06T01:29:09.739Z,1.30
2018-08-06T01:34:14.779Z,1.23
2018-08-06T01:39:19.476Z,1.43
2018-08-06T01:44:24.270Z,1.60
2018-08-06T01:49:28.947Z,1.50
2018-08-06T01:54:33.748Z,1.30
2018-08-06T01:59:38.553Z,1.10
2018-08-06T02:04:43.114Z,1.30
2018-08-06T02:09:48.878Z,1.27
2018-08-06T02:14:54.636Z,1.20
2018-08-06T02:19:59.332Z,1.40
2018-08-06T02:25:03.763Z,1.30
2018-08-06T02:30:11.325Z,1.33
2018-08-06T02:35:16.487Z,1.30
2018-08-06T02:40:22.009Z,1.30
2018-08-06T02:45:26.695Z,1.30
2018-08-06T02:50:31.031Z,1.20
2018-08-06T02:55:36.053Z,1.40
2018-08-06T03:00:40.734Z,1.50
2018-08-06T03:05:46.031Z,1.33
2018-08-06T03:10:51.062Z,1.40
2018-08-06T03:15:55.873Z,1.50
2018-08-06T03:21:00.665Z,1.70
2018-08-06T03:26:05.473Z,1.40
2018-08-06T03:31:10.270Z,1.60
2018-08-06T03:36:15.101Z,1.30
2018-08-06T03:41:19.418Z,1.60
2018-08-06T03:46:24.104Z,1.60
2018-08-06T03:51:28.819Z,1.80
2018-08-06T03:56:34.179Z,1.50
2018-08-06T04:01:38.376Z,1.60
2018-08-06T04:06:42.929Z,1.40
2018-08-06T04:11:47.726Z,1.80
2018-08-06T04:16:52.468Z,1.90
2018-08-06T04:21:57.212Z,1.60
2018-08-06T04:27:01.893Z,1.83
2018-08-06T04:32:06.701Z,1.67
2018-08-06T04:37:11.478Z,1.50
2018-08-06T04:42:16.185Z,1.53
2018-08-06T04:47:21.101Z,1.70
2018-08-06T04:52:25.907Z,1.70
2018-08-06T04:57:30.704Z,1.70
2018-08-06T05:02:35.386Z,1.37
2018-08-06T05:07:40.187Z,2.83
2018-08-06T05:12:44.995Z,2.40
2018-08-06T05:17:49.912Z,2.20
2018-08-06T05:22:54.595Z,2.50
2018-08-06T05:27:59.638Z,2.77
2018-08-06T05:33:04.449Z,2.30
2018-08-06T05:38:16.800Z,2.70
2018-08-06T05:43:22.446Z,2.60
2018-08-06T05:48:27.727Z,2.20
2018-08-06T05:53:32.649Z,2.20
2018-08-06T05:58:37.568Z,2.50
2018-08-06T06:03:41.893Z,2.73
2018-08-06T06:08:46.718Z,2.57
2018-08-06T06:13:51.498Z,2.13
2018-08-06T06:18:57.037Z,2.30
2018-08-06T06:24:01.252Z,2.43
2018-08-06T06:29:08.477Z,2.63
2018-08-06T06:34:13.225Z,2.30
2018-08-06T06:39:21.220Z,2.67
2018-08-06T06:44:25.607Z,2.20
2018-08-06T06:49:29.812Z,2.40
2018-08-06T06:54:34.080Z,2.23
2018-08-06T06:59:38.222Z,1.97
2018-08-06T07:04:42.370Z,2.47
2018-08-06T07:09:46.569Z,1.83
2018-08-06T07:14:50.729Z,2.03
2018-08-06T07:19:54.898Z,1.37
2018-08-06T07:24:59.121Z,1.63
2018-08-06T07:30:03.094Z,1.60
2018-08-06T07:35:08.608Z,1.60
2018-08-06T07:40:14.130Z,1.93
2018-08-06T07:45:19.524Z,1.60
2018-08-06T07:50:23.690Z,1.40
2018-08-06T07:55:27.886Z,2.30
2018-08-06T08:00:32.276Z,1.63
2018-08-06T08:05:36.432Z,2.00
2018-08-06T08:10:40.662Z,1.90
2018-08-06T08:15:44.938Z,1.77
2018-08-06T08:20:49.166Z,1.90
2018-08-06T08:25:53.412Z,1.70
2018-08-06T08:30:57.515Z,1.30
2018-08-06T08:36:01.603Z,1.70
2018-08-06T08:41:05.775Z,1.77
2018-08-06T08:46:09.910Z,1.70
2018-08-06T08:51:14.050Z,1.47
2018-08-06T08:56:18.223Z,1.57
2018-08-06T09:01:22.413Z,1.63
2018-08-06T09:06:26.239Z,1.50
2018-08-06T09:11:30.189Z,1.93
2018-08-06T09:16:34.386Z,1.50
2018-08-06T09:21:39.137Z,1.70
2018-08-06T09:26:43.278Z,1.57
2018-08-06T09:31:47.350Z,1.77
2018-08-06T09:36:51.520Z,2.00
2018-08-06T09:41:55.697Z,1.80
2018-08-06T09:46:59.838Z,1.63
2018-08-06T09:52:03.639Z,2.07
2018-08-06T09:57:08.284Z,1.70
2018-08-06T10:02:12.344Z,2.20
2018-08-06T10:07:16.452Z,1.87
2018-08-06T10:12:20.534Z,1.90
2018-08-06T10:17:24.628Z,1.80
2018-08-06T10:22:28.759Z,1.60
2018-08-06T10:27:32.858Z,2.10
2018-08-06T10:32:36.736Z,2.03
2018-08-06T10:37:40.733Z,1.80
2018-08-06T10:42:45.248Z,1.97
2018-08-06T10:47:49.844Z,1.93
2018-08-06T10:52:53.948Z,1.70
2018-08-06T10:57:58.087Z,1.90
2018-08-06T11:03:02.344Z,2.23
2018-08-06T11:08:06.518Z,2.07
2018-08-06T11:13:10.691Z,1.80
2018-08-06T11:18:14.808Z,2.23
2018-08-06T11:23:18.941Z,2.10
2018-08-06T11:28:23.139Z,2.47
2018-08-06T11:33:27.201Z,2.13
2018-08-06T11:38:32.223Z,2.40
2018-08-06T11:43:36.331Z,1.83
2018-08-06T11:48:40.392Z,1.90
2018-08-06T11:53:45.329Z,1.60
2018-08-06T11:58:49.533Z,2.30
2018-08-06T12:03:53.987Z,2.00
2018-08-06T12:08:58.050Z,1.87
2018-08-06T12:14:02.219Z,1.60
2018-08-06T12:19:06.877Z,1.97
2018-08-06T12:24:11.963Z,2.03
2018-08-06T12:29:16.062Z,1.77
2018-08-06T12:34:20.296Z,1.77
2018-08-06T12:39:24.239Z,1.60
2018-08-06T12:44:28.233Z,1.70
2018-08-06T12:49:32.120Z,1.70
2018-08-06T12:54:36.899Z,1.97
2018-08-06T12:59:41.098Z,1.80
2018-08-06T13:04:45.291Z,2.13
2018-08-06T13:09:49.443Z,2.73
2018-08-06T13:14:53.747Z,2.20
2018-08-06T13:19:57.836Z,1.93
2018-08-06T13:25:02.904Z,2.02
2018-08-06T13:30:10.769Z,2.35
2018-08-06T13:35:15.657Z,2.20
2018-08-06T13:40:20.078Z,2.20
2018-08-06T13:45:24.240Z,2.43
2018-08-06T13:50:28.365Z,2.70
2018-08-06T13:55:32.529Z,2.30
2018-08-06T14:00:36.754Z,2.07
2018-08-06T14:05:40.948Z,2.13
2018-08-06T14:10:45.187Z,1.90
2018-08-06T14:15:49.380Z,2.00
2018-08-06T14:20:53.519Z,2.43
2018-08-06T14:25:57.824Z,2.53
2018-08-06T14:31:02.100Z,2.20
2018-08-06T14:36:06.762Z,2.23
2018-08-06T14:41:11.797Z,2.50
2018-08-06T14:46:15.929Z,2.20
2018-08-06T14:51:20.218Z,2.20
2018-08-06T14:56:24.151Z,2.30
2018-08-06T15:01:28.287Z,2.30
2018-08-06T15:06:32.707Z,2.20
2018-08-06T15:11:37.027Z,2.20
2018-08-06T15:22:48.230Z,2.50
2018-08-06T15:27:52.566Z,2.40
2018-08-06T15:32:57.903Z,2.50
2018-08-06T15:38:02.229Z,2.57
2018-08-06T15:43:06.159Z,2.70
2018-08-06T15:48:10.934Z,2.57
2018-08-06T16:00:47.952Z,2.77
2018-08-06T16:05:52.734Z,3.00
2018-08-06T16:10:57.802Z,2.50
2018-08-06T16:16:02.768Z,2.77
2018-08-06T16:21:07.858Z,2.60
2018-08-06T16:26:12.949Z,2.90
2018-08-06T16:31:17.163Z,2.70
2018-08-06T16:36:21.397Z,2.40
2018-08-06T16:41:25.610Z,2.73
2018-08-06T16:46:29.925Z,2.97
2018-08-06T16:51:34.089Z,2.80
2018-08-06T16:56:38.253Z,2.63
2018-08-06T17:01:42.449Z,2.77
2018-08-06T17:06:46.649Z,2.73
2018-08-06T17:11:50.997Z,2.50
2018-08-06T17:16:55.207Z,2.50
2018-08-06T17:21:59.197Z,2.70
2018-08-06T17:27:03.384Z,2.63
2018-08-06T17:32:07.532Z,2.60
2018-08-06T17:37:11.909Z,2.60
2018-08-06T17:42:16.158Z,2.80
2018-08-06T17:47:20.687Z,2.80
2018-08-06T17:52:25.063Z,2.63
2018-08-06T17:57:29.574Z,2.63
2018-08-06T18:02:34.621Z,3.10
2018-08-06T18:07:38.870Z,2.80
2018-08-06T18:12:44.248Z,3.03
2018-08-06T18:17:48.596Z,3.50
2018-08-06T18:22:52.865Z,3.20
2018-08-06T18:27:58.204Z,3.10
2018-08-06T18:33:02.391Z,3.40
2018-08-06T18:38:06.804Z,3.27
2018-08-06T18:43:11.833Z,3.10
2018-08-06T18:48:16.947Z,3.00
2018-08-06T18:53:21.235Z,3.00
2018-08-06T18:58:25.411Z,3.03
2018-08-06T19:03:29.672Z,3.07
2018-08-06T19:08:33.858Z,3.60
2018-08-06T19:14:45.560Z,3.17
2018-08-06T19:19:50.526Z,3.30
2018-08-06T19:25:00.131Z,3.70
2018-08-06T19:30:05.690Z,3.57
2018-08-06T19:35:10.139Z,3.70
2018-08-06T19:40:14.445Z,3.20
2018-08-06T19:45:18.701Z,3.60
2018-08-06T19:50:28.268Z,3.70
2018-08-06T19:55:37.603Z,4.13
2018-08-06T20:00:42.407Z,3.60
2018-08-06T20:05:47.425Z,3.30
2018-08-06T20:10:51.642Z,3.67
2018-08-06T20:15:56.094Z,3.73
2018-08-06T20:21:00.035Z,4.30
2018-08-06T20:26:04.231Z,3.90
2018-08-06T20:31:08.519Z,4.20
2018-08-06T20:36:12.761Z,4.37
2018-08-06T20:41:16.835Z,3.67
2018-08-06T20:46:21.504Z,3.87
2018-08-06T20:51:25.740Z,3.67
2018-08-06T20:56:29.870Z,3.43
2018-08-06T21:01:33.996Z,4.20
2018-08-06T21:06:39.626Z,3.70
2018-08-06T21:11:43.918Z,3.17
2018-08-06T21:16:48.054Z,3.30
2018-08-06T21:21:52.229Z,3.30
2018-08-06T21:26:56.453Z,3.47
2018-08-06T21:32:00.607Z,2.83
2018-08-06T21:37:04.709Z,3.60
2018-08-06T21:42:08.817Z,3.57
2018-08-06T21:47:13.447Z,3.07
2018-08-06T21:52:17.424Z,3.03
2018-08-06T21:57:21.503Z,3.33
2018-08-06T22:02:25.729Z,3.00
2018-08-06T22:07:29.916Z,2.73
2018-08-06T22:12:34.052Z,3.37
2018-08-06T22:17:38.359Z,3.40
2018-08-06T22:22:42.480Z,3.80
2018-08-06T22:27:47.509Z,3.70
2018-08-06T22:32:51.700Z,3.63
2018-08-06T22:37:55.868Z,3.90
2018-08-06T22:42:59.982Z,3.60
2018-08-06T22:48:04.238Z,3.50
2018-08-06T22:53:08.568Z,3.67
2018-08-06T22:58:12.729Z,3.77
2018-08-06T23:03:19.333Z,3.30
2018-08-06T23:08:23.679Z,4.00
2018-08-06T23:13:27.956Z,3.27
2018-08-06T23:18:32.676Z,3.50
2018-08-06T23:23:36.852Z,3.33
2018-08-06T23:28:41.016Z,3.27
2018-08-06T23:33:45.166Z,3.17
2018-08-06T23:38:50.842Z,3.30
2018-08-06T23:43:55.658Z,3.50
2018-08-06T23:49:00.146Z,3.20
2018-08-06T23:54:04.359Z,2.90
2018-08-06T23:59:08.472Z,3.40
